Grissom Air Reserve Base


Codes: KGUS/GUS
Name: Grissom Air Reserve Base
City: Peru
Country: United States
Elevation: 812 ft.
Website:
Wikipedia:

Photos at Grissom Air Reserve Base


   Photos courtesy of SpottingLog. You can add your own sightings and photos by signing up for a free trial today.



No photos found.

Weather at Grissom Air Reserve Base


Time (UTC)DescriptionTempratureWindCloud coverageVisibilityPressureHumidity
23-May-2024 21:00Clear Sky26°C4 mph, SW1%10000m1008hPa35%
24-May-2024 00:00Clear Sky24°C2 mph, N3%10000m1009hPa47%
24-May-2024 03:00Clear Sky18°C7 mph, E4%10000m1012hPa63%
24-May-2024 06:00Clear Sky16°C7 mph, E2%10000m1012hPa65%
24-May-2024 09:00Clear Sky15°C9 mph, E0%10000m1011hPa72%
24-May-2024 12:00Few Clouds17°C7 mph, SE13%10000m1012hPa77%
24-May-2024 15:00Few Clouds24°C9 mph, SE21%10000m1011hPa65%
24-May-2024 18:00Scattered Clouds27°C11 mph, SE30%10000m1009hPa53%
24-May-2024 21:00Overcast Clouds29°C13 mph, S97%10000m1007hPa49%
25-May-2024 00:00Overcast Clouds25°C11 mph, S92%10000m1006hPa71%
25-May-2024 03:00Few Clouds21°C11 mph, S11%10000m1007hPa88%
25-May-2024 06:00Light Rain20°C13 mph, SW19%10000m1007hPa93%
25-May-2024 09:00Light Rain20°C11 mph, NW99%10000m1008hPa90%
25-May-2024 12:00Overcast Clouds18°C11 mph, NW85%10000m1010hPa88%
25-May-2024 15:00Clear Sky20°C9 mph, NW5%10000m1011hPa58%
25-May-2024 18:00Few Clouds23°C9 mph, NW19%10000m1012hPa42%
25-May-2024 21:00Clear Sky23°C9 mph, N4%10000m1012hPa37%
26-May-2024 00:00Clear Sky19°C7 mph, NE4%10000m1012hPa58%
26-May-2024 03:00Broken Clouds15°C7 mph, NE55%10000m1013hPa64%
26-May-2024 06:00Broken Clouds13°C9 mph, E73%10000m1012hPa68%
26-May-2024 09:00Broken Clouds13°C11 mph, SE80%10000m1010hPa71%
26-May-2024 12:00Overcast Clouds15°C13 mph, SE88%10000m1008hPa72%
26-May-2024 15:00Moderate Rain18°C13 mph, N100%0m1007hPa83%
26-May-2024 18:00Heavy Intensity Rain19°C11 mph, SE100%10000m1004hPa88%
26-May-2024 21:00Light Rain21°C22 mph, S100%10000m1000hPa83%
27-May-2024 00:00Heavy Intensity Rain24°C27 mph, SW100%10000m998hPa74%
27-May-2024 03:00Light Rain19°C16 mph, SW70%10000m1000hPa88%
27-May-2024 06:00Scattered Clouds18°C11 mph, SW42%10000m1001hPa94%
27-May-2024 09:00Scattered Clouds17°C13 mph, W31%10000m1002hPa95%
27-May-2024 12:00Scattered Clouds16°C13 mph, W25%10000m1004hPa90%
27-May-2024 15:00Clear Sky18°C16 mph, SW4%10000m1005hPa70%
27-May-2024 18:00Scattered Clouds21°C20 mph, W27%10000m1005hPa60%
27-May-2024 21:00Light Rain19°C20 mph, W97%10000m1006hPa68%
28-May-2024 00:00Broken Clouds17°C18 mph, W61%10000m1008hPa72%
28-May-2024 03:00Clear Sky14°C11 mph, NW0%10000m1010hPa73%
28-May-2024 06:00Clear Sky12°C7 mph, SW0%10000m1012hPa87%
28-May-2024 09:00Clear Sky11°C9 mph, W0%10000m1012hPa95%
28-May-2024 12:00Clear Sky13°C9 mph, W0%10000m1014hPa87%
28-May-2024 15:00Clear Sky19°C11 mph, W0%10000m1014hPa63%
28-May-2024 18:00Clear Sky22°C13 mph, W8%10000m1012hPa52%